Time;durP1;ratioP1;P1;durP2;ratioP2;P2;SDS_P1;SDS_P2;PMS_P1;PMS_P2;Temp;Humidity;BMP_temperature;BMP_pressure;BME280_temperature;BME280_humidity;BME280_pressure;Samples;Min_cycle;Max_cycle;Signal;HPM_P1;HPM_P2
2023/09/02 00:00:17;;;;;;;2.45;0.85;;;18.00;99.90;;;;;;925638;152;27476;-75
2023/09/02 00:02:43;;;;;;;1.25;0.90;;;18.10;99.90;;;;;;944300;149;27390;-75
2023/09/02 00:05:10;;;;;;;1.15;0.90;;;18.10;99.90;;;;;;942899;149;27421;-75
2023/09/02 00:07:37;;;;;;;1.20;1.10;;;18.20;99.90;;;;;;944930;149;27293;-75
2023/09/02 00:10:03;;;;;;;2.20;1.35;;;18.20;99.90;;;;;;942716;149;27831;-75
2023/09/02 00:12:30;;;;;;;1.72;0.78;;;18.30;99.90;;;;;;943600;148;27360;-75
2023/09/02 00:14:56;;;;;;;2.35;1.17;;;18.30;99.90;;;;;;947382;148;27766;-75
2023/09/02 00:17:23;;;;;;;0.93;0.88;;;18.40;99.90;;;;;;942992;149;27261;-75
2023/09/02 00:19:49;;;;;;;1.47;1.00;;;18.40;99.90;;;;;;944989;149;27353;-75
2023/09/02 00:22:16;;;;;;;1.05;0.90;;;18.40;99.90;;;;;;944543;149;27393;-75
2023/09/02 00:24:43;;;;;;;2.27;1.00;;;18.50;99.90;;;;;;943737;149;27477;-76
2023/09/02 00:27:09;;;;;;;0.78;0.78;;;18.50;99.90;;;;;;929739;151;27403;-75
2023/09/02 00:29:36;;;;;;;0.88;0.88;;;18.50;99.90;;;;;;942703;149;27354;-76
2023/09/02 00:32:02;;;;;;;0.90;0.90;;;18.50;99.90;;;;;;945860;148;27406;-75
2023/09/02 00:34:29;;;;;;;1.07;0.93;;;18.40;99.90;;;;;;933678;150;27423;-75
2023/09/02 00:36:55;;;;;;;1.65;0.90;;;18.40;99.90;;;;;;926899;151;27473;-76
2023/09/02 00:39:22;;;;;;;0.80;0.80;;;18.30;99.90;;;;;;943633;149;27371;-75
2023/09/02 00:41:49;;;;;;;1.52;0.90;;;18.30;99.90;;;;;;929871;151;27371;-76
2023/09/02 00:44:15;;;;;;;2.80;1.20;;;18.20;99.90;;;;;;930211;151;27382;-75
2023/09/02 00:46:42;;;;;;;0.95;0.85;;;18.10;99.90;;;;;;928856;151;27425;-75
2023/09/02 00:49:08;;;;;;;2.20;0.90;;;18.00;99.90;;;;;;942644;150;27464;-75
2023/09/02 00:51:35;;;;;;;2.05;1.00;;;17.90;99.90;;;;;;928542;151;27375;-75
2023/09/02 00:54:02;;;;;;;0.72;0.70;;;17.80;99.90;;;;;;943154;149;27828;-75
2023/09/02 00:56:28;;;;;;;2.15;1.10;;;17.70;99.90;;;;;;932171;150;27403;-75
2023/09/02 00:58:55;;;;;;;0.98;0.98;;;17.70;99.90;;;;;;929750;150;28332;-75
2023/09/02 01:01:21;;;;;;;1.62;0.90;;;17.60;99.90;;;;;;918094;152;27404;-75
2023/09/02 01:03:48;;;;;;;1.10;0.98;;;17.50;99.90;;;;;;907815;153;27370;-75
2023/09/02 01:06:15;;;;;;;1.70;0.90;;;17.50;99.90;;;;;;929963;150;27354;-75
2023/09/02 01:08:41;;;;;;;1.05;0.93;;;17.40;99.90;;;;;;907936;153;27509;-75
2023/09/02 01:11:08;;;;;;;0.80;0.80;;;17.30;99.90;;;;;;932477;150;27316;-75
2023/09/02 01:13:34;;;;;;;1.87;0.72;;;17.20;99.90;;;;;;932576;150;27331;-75
2023/09/02 01:16:02;;;;;;;1.10;1.02;;;17.20;99.90;;;;;;930274;150;27317;-75
2023/09/02 01:18:27;;;;;;;1.30;0.78;;;17.10;99.90;;;;;;932307;150;27699;-75
2023/09/02 01:21:00;;;;;;;2.12;0.93;;;17.10;99.90;;;;;;930620;150;27335;-75
2023/09/02 01:23:32;;;;;;;2.45;1.12;;;17.00;99.90;;;;;;930353;150;27357;-75
2023/09/02 01:26:08;;;;;;;1.00;0.90;;;16.90;99.90;;;;;;929441;150;27648;-75
2023/09/02 01:28:35;;;;;;;1.00;1.00;;;16.90;99.90;;;;;;911115;150;27472;-75
2023/09/02 01:31:01;;;;;;;2.08;0.90;;;16.80;99.90;;;;;;931864;150;27364;-75
2023/09/02 01:33:28;;;;;;;0.60;0.60;;;16.70;99.90;;;;;;908360;153;27328;-75
2023/09/02 01:35:55;;;;;;;1.75;1.00;;;16.70;99.90;;;;;;931553;150;27423;-75
2023/09/02 01:38:21;;;;;;;2.37;1.00;;;16.70;99.90;;;;;;932843;150;27434;-75
2023/09/02 01:40:48;;;;;;;2.00;1.30;;;16.60;99.90;;;;;;932319;150;27422;-75
2023/09/02 01:43:17;;;;;;;0.98;0.98;;;16.60;99.90;;;;;;930823;150;27450;-75
2023/09/02 01:45:41;;;;;;;1.20;1.10;;;16.60;99.90;;;;;;929629;150;27439;-76
2023/09/02 01:48:08;;;;;;;0.95;0.95;;;16.70;99.90;;;;;;931571;150;27288;-75
2023/09/02 01:50:34;;;;;;;0.90;0.90;;;16.70;99.90;;;;;;933017;150;27355;-75
2023/09/02 01:53:01;;;;;;;1.10;1.00;;;16.80;99.90;;;;;;929987;150;27383;-75
2023/09/02 01:55:27;;;;;;;1.75;0.88;;;16.80;99.90;;;;;;933389;149;27398;-75
2023/09/02 01:57:57;;;;;;;2.42;1.17;;;16.90;99.90;;;;;;929928;151;27753;-75
2023/09/02 02:00:23;;;;;;;1.72;1.17;;;17.00;99.90;;;;;;944076;149;27374;-75
2023/09/02 02:02:53;;;;;;;1.30;1.00;;;17.10;99.90;;;;;;943681;149;27479;-74
2023/09/02 02:05:17;;;;;;;2.87;1.10;;;17.10;99.90;;;;;;944676;149;27321;-74
2023/09/02 02:07:43;;;;;;;1.47;1.20;;;17.20;99.90;;;;;;944861;149;27402;-75
2023/09/02 02:10:10;;;;;;;0.90;0.90;;;17.30;99.90;;;;;;943615;149;27377;-76
2023/09/02 02:12:36;;;;;;;0.95;0.95;;;17.40;99.90;;;;;;942961;149;27864;-74
2023/09/02 02:15:03;;;;;;;0.98;0.90;;;17.40;99.90;;;;;;942586;148;27372;-75
2023/09/02 02:17:30;;;;;;;1.27;1.17;;;17.50;99.90;;;;;;945172;149;27419;-74
2023/09/02 02:19:56;;;;;;;0.88;0.88;;;17.60;99.90;;;;;;944046;149;27270;-74
2023/09/02 02:22:23;;;;;;;1.05;1.00;;;17.70;99.90;;;;;;943412;149;27455;-75
2023/09/02 02:24:49;;;;;;;1.17;1.07;;;17.70;99.90;;;;;;944336;149;27373;-74
2023/09/02 02:27:16;;;;;;;2.20;0.98;;;17.80;99.90;;;;;;944573;149;27270;-75
2023/09/02 02:29:43;;;;;;;2.37;0.93;;;17.80;99.90;;;;;;943894;149;27319;-75
2023/09/02 02:32:09;;;;;;;0.72;0.72;;;17.90;99.90;;;;;;942476;148;27388;-75
2023/09/02 02:34:36;;;;;;;2.70;1.15;;;18.00;99.90;;;;;;943166;149;27368;-74
2023/09/02 02:37:03;;;;;;;1.17;0.80;;;18.00;99.90;;;;;;944494;149;27329;-74
2023/09/02 02:39:29;;;;;;;0.95;0.90;;;18.00;99.90;;;;;;928465;151;27429;-74
2023/09/02 02:41:55;;;;;;;3.92;1.00;;;18.00;99.90;;;;;;927085;152;27413;-75
2023/09/02 02:44:22;;;;;;;1.07;0.98;;;18.10;99.90;;;;;;942986;149;27370;-74
2023/09/02 02:46:49;;;;;;;1.70;0.85;;;18.10;99.90;;;;;;944071;149;27369;-75
2023/09/02 02:49:15;;;;;;;1.52;0.78;;;18.10;99.90;;;;;;944689;148;27398;-74
2023/09/02 02:51:42;;;;;;;0.78;0.78;;;18.10;99.90;;;;;;945265;149;27268;-75
2023/09/02 02:54:08;;;;;;;4.15;0.93;;;18.20;99.90;;;;;;943581;149;27369;-75
2023/09/02 02:56:35;;;;;;;0.90;0.70;;;18.20;99.90;;;;;;938099;149;27415;-75
2023/09/02 02:59:02;;;;;;;3.08;0.90;;;18.20;99.90;;;;;;931644;150;27365;-74
2023/09/02 03:01:30;;;;;;;2.67;1.02;;;18.30;99.90;;;;;;930462;150;27272;-74
2023/09/02 03:03:55;;;;;;;1.92;0.82;;;18.30;99.90;;;;;;931158;150;27256;-75
2023/09/02 03:06:21;;;;;;;2.00;1.10;;;18.30;99.90;;;;;;933735;150;27456;-74
2023/09/02 03:08:48;;;;;;;0.93;0.93;;;18.40;99.90;;;;;;931147;150;27381;-74
2023/09/02 03:11:15;;;;;;;0.80;0.80;;;18.40;99.90;;;;;;931878;150;27422;-75
2023/09/02 03:13:41;;;;;;;1.52;1.10;;;18.40;99.90;;;;;;931423;150;27809;-75
2023/09/02 03:16:08;;;;;;;1.07;0.90;;;18.40;99.90;;;;;;930706;150;27367;-75
2023/09/02 03:18:34;;;;;;;1.07;0.98;;;18.50;99.90;;;;;;932855;150;27365;-76
2023/09/02 03:21:04;;;;;;;4.90;1.10;;;18.50;99.90;;;;;;931187;153;27264;-75
2023/09/02 03:23:30;;;;;;;0.88;0.88;;;18.50;99.90;;;;;;931335;150;27418;-75
2023/09/02 03:25:57;;;;;;;1.10;1.10;;;18.50;99.90;;;;;;929250;150;27441;-76
2023/09/02 03:28:23;;;;;;;1.00;0.85;;;18.50;99.90;;;;;;932765;150;27926;-75
2023/09/02 03:30:50;;;;;;;0.95;0.95;;;18.50;99.90;;;;;;933549;150;27327;-75
2023/09/02 03:33:17;;;;;;;1.17;1.17;;;18.60;99.90;;;;;;929793;150;27441;-76
2023/09/02 03:35:44;;;;;;;1.42;0.75;;;18.60;99.90;;;;;;932192;150;27379;-75
2023/09/02 03:38:10;;;;;;;1.20;1.20;;;18.60;99.90;;;;;;931323;150;27443;-76
2023/09/02 03:40:36;;;;;;;1.07;1.07;;;18.60;99.90;;;;;;932290;150;27343;-75
2023/09/02 03:43:03;;;;;;;1.42;1.30;;;18.70;99.90;;;;;;932217;150;27260;-75
2023/09/02 03:45:29;;;;;;;2.02;1.20;;;18.70;99.90;;;;;;932216;150;27428;-76
2023/09/02 03:47:56;;;;;;;1.27;1.05;;;18.70;99.90;;;;;;932560;150;27365;-75
2023/09/02 03:50:24;;;;;;;0.90;0.90;;;18.70;99.90;;;;;;930502;150;27882;-75
2023/09/02 03:52:49;;;;;;;2.37;1.15;;;18.80;99.90;;;;;;931397;150;27352;-76
2023/09/02 03:55:16;;;;;;;1.00;0.90;;;18.80;99.90;;;;;;930079;150;27826;-75
2023/09/02 03:57:42;;;;;;;2.17;0.90;;;18.80;99.90;;;;;;938879;149;27485;-75
2023/09/02 04:00:09;;;;;;;1.75;0.90;;;18.80;99.90;;;;;;944646;149;27390;-75
2023/09/02 04:02:36;;;;;;;0.95;0.95;;;18.80;99.90;;;;;;945528;149;27343;-75
2023/09/02 04:05:03;;;;;;;3.10;1.10;;;18.90;99.90;;;;;;943856;149;27349;-75
2023/09/02 04:07:29;;;;;;;1.67;1.57;;;18.90;99.90;;;;;;943349;149;27414;-75
2023/09/02 04:09:57;;;;;;;4.25;1.32;;;18.90;99.90;;;;;;928594;151;27429;-75
2023/09/02 04:12:22;;;;;;;1.40;1.30;;;18.90;99.90;;;;;;928865;151;27457;-75
2023/09/02 04:14:50;;;;;;;1.30;1.20;;;18.90;99.90;;;;;;933724;150;27443;-76
2023/09/02 04:17:16;;;;;;;1.32;1.22;;;18.90;99.90;;;;;;935914;150;28023;-75
2023/09/02 04:19:42;;;;;;;1.37;1.35;;;19.00;99.90;;;;;;935603;150;27390;-75
2023/09/02 04:22:08;;;;;;;1.47;1.27;;;19.00;99.90;;;;;;924444;151;28056;-76
2023/09/02 04:24:35;;;;;;;2.35;1.20;;;19.00;99.90;;;;;;923758;151;27450;-76
2023/09/02 04:27:02;;;;;;;1.52;1.42;;;19.00;99.90;;;;;;924830;151;27365;-76
2023/09/02 04:29:28;;;;;;;1.80;1.20;;;19.00;99.90;;;;;;925921;151;27356;-76
2023/09/02 04:31:55;;;;;;;1.60;1.50;;;19.10;99.90;;;;;;924219;151;27497;-76
2023/09/02 04:34:21;;;;;;;1.70;1.60;;;19.10;99.90;;;;;;924519;151;27412;-76
2023/09/02 04:36:48;;;;;;;1.40;1.30;;;19.10;99.90;;;;;;923926;151;27372;-76
2023/09/02 04:39:15;;;;;;;2.00;1.90;;;19.10;99.90;;;;;;924836;152;27367;-76
2023/09/02 04:41:41;;;;;;;1.60;1.57;;;19.10;99.90;;;;;;923979;151;27505;-76
2023/09/02 04:44:08;;;;;;;1.60;1.50;;;19.10;99.90;;;;;;925294;152;28528;-76
2023/09/02 04:46:34;;;;;;;1.62;1.52;;;19.10;99.90;;;;;;923513;152;27312;-76
2023/09/02 04:49:01;;;;;;;2.98;1.80;;;19.10;99.90;;;;;;925631;152;27817;-76
2023/09/02 04:51:27;;;;;;;4.05;1.65;;;19.20;99.90;;;;;;924266;151;27837;-76
2023/09/02 04:53:54;;;;;;;2.08;1.90;;;19.20;99.90;;;;;;923934;151;27476;-76
2023/09/02 04:56:21;;;;;;;1.80;1.70;;;19.20;99.90;;;;;;925200;151;27420;-76
2023/09/02 04:58:47;;;;;;;1.92;1.82;;;19.20;99.90;;;;;;913038;153;27384;-76
2023/09/02 05:01:14;;;;;;;1.60;1.50;;;19.20;99.90;;;;;;907915;153;27314;-76
2023/09/02 05:03:40;;;;;;;1.95;1.62;;;19.20;99.90;;;;;;924537;152;27374;-75
2023/09/02 05:06:10;;;;;;;1.55;1.47;;;19.20;99.90;;;;;;922473;152;28058;-76
2023/09/02 05:08:34;;;;;;;1.47;1.37;;;19.20;99.90;;;;;;923057;152;27406;-75
2023/09/02 05:11:00;;;;;;;1.80;1.70;;;19.20;99.90;;;;;;923293;152;27475;-76
2023/09/02 05:13:27;;;;;;;1.42;1.37;;;19.30;99.90;;;;;;923788;152;27450;-76
2023/09/02 05:15:53;;;;;;;2.17;1.98;;;19.30;99.90;;;;;;924548;152;27396;-76
2023/09/02 05:18:20;;;;;;;2.25;1.77;;;19.30;99.90;;;;;;924659;152;27350;-76
2023/09/02 05:20:47;;;;;;;3.77;1.65;;;19.30;99.90;;;;;;923686;152;27814;-76
2023/09/02 05:23:13;;;;;;;1.92;1.82;;;19.30;99.90;;;;;;931529;150;27408;-76
2023/09/02 05:25:40;;;;;;;2.15;1.57;;;19.40;99.90;;;;;;916612;152;27388;-76
2023/09/02 05:28:06;;;;;;;1.55;1.45;;;19.40;99.90;;;;;;909742;153;27368;-76
2023/09/02 05:30:35;;;;;;;1.90;1.80;;;19.50;99.90;;;;;;908501;153;27353;-76
2023/09/02 05:33:00;;;;;;;1.75;1.50;;;19.50;99.90;;;;;;916293;152;27414;-75
2023/09/02 05:35:26;;;;;;;1.92;1.82;;;19.50;99.90;;;;;;926274;150;27340;-75
2023/09/02 05:37:53;;;;;;;2.52;2.33;;;19.60;99.90;;;;;;931782;151;27374;-76
2023/09/02 05:40:19;;;;;;;2.35;2.20;;;19.60;99.90;;;;;;932149;150;27371;-75
2023/09/02 05:42:46;;;;;;;2.10;2.00;;;19.70;99.90;;;;;;932404;150;27341;-75
2023/09/02 05:45:13;;;;;;;2.30;2.10;;;19.80;99.90;;;;;;930970;150;27454;-75
2023/09/02 05:47:39;;;;;;;2.98;1.62;;;19.80;99.90;;;;;;932506;150;27456;-75
2023/09/02 05:50:06;;;;;;;2.77;2.10;;;19.90;99.90;;;;;;931673;150;27387;-75
2023/09/02 05:52:32;;;;;;;2.55;2.35;;;19.90;99.90;;;;;;930832;150;27347;-75
2023/09/02 05:54:59;;;;;;;2.55;2.35;;;20.00;99.90;;;;;;932654;150;27361;-76
2023/09/02 05:57:25;;;;;;;2.12;1.95;;;20.00;99.90;;;;;;932059;150;27488;-75
2023/09/02 05:59:52;;;;;;;1.92;1.82;;;20.10;99.90;;;;;;945676;148;27425;-75
2023/09/02 06:02:19;;;;;;;2.60;2.40;;;20.20;99.90;;;;;;945291;149;27341;-75
2023/09/02 06:04:45;;;;;;;2.47;2.27;;;20.20;99.90;;;;;;947606;148;27396;-75
2023/09/02 06:07:12;;;;;;;2.58;2.40;;;20.30;99.90;;;;;;941390;149;27435;-75
2023/09/02 06:09:38;;;;;;;2.77;2.40;;;20.40;99.90;;;;;;943546;149;27413;-75
2023/09/02 06:12:05;;;;;;;3.40;2.40;;;20.50;99.90;;;;;;946487;148;27389;-76
2023/09/02 06:14:32;;;;;;;2.70;2.50;;;20.50;99.90;;;;;;927329;151;27339;-75
2023/09/02 06:16:58;;;;;;;2.72;2.33;;;20.60;99.90;;;;;;944209;149;27274;-75
2023/09/02 06:19:25;;;;;;;2.42;2.15;;;20.70;99.90;;;;;;944850;149;27321;-76
2023/09/02 06:21:51;;;;;;;2.65;2.20;;;20.70;99.90;;;;;;945384;149;27461;-75
2023/09/02 06:24:18;;;;;;;3.22;2.90;;;20.80;99.90;;;;;;944614;149;27347;-75
2023/09/02 06:26:45;;;;;;;2.95;2.75;;;20.80;99.90;;;;;;944360;149;27450;-75
2023/09/02 06:29:11;;;;;;;2.72;2.40;;;20.80;99.90;;;;;;944935;148;27374;-75
2023/09/02 06:31:38;;;;;;;2.50;2.40;;;20.90;99.90;;;;;;943849;149;27378;-75
2023/09/02 06:34:04;;;;;;;2.67;2.42;;;20.90;99.90;;;;;;944273;149;27439;-75
2023/09/02 06:36:31;;;;;;;2.83;2.70;;;21.00;99.90;;;;;;944242;149;27299;-75
2023/09/02 06:38:57;;;;;;;3.12;2.92;;;21.00;99.90;;;;;;944640;149;27333;-75
2023/09/02 06:41:24;;;;;;;2.85;2.62;;;21.10;99.90;;;;;;944143;149;27340;-75
2023/09/02 06:43:51;;;;;;;9.65;4.62;;;21.20;99.90;;;;;;929183;150;27489;-75
2023/09/02 06:46:17;;;;;;;4.10;2.90;;;21.30;99.90;;;;;;944413;149;27833;-76
2023/09/02 06:48:44;;;;;;;3.10;2.90;;;21.40;99.90;;;;;;927019;151;27433;-76
2023/09/02 06:51:10;;;;;;;3.62;3.20;;;21.40;99.90;;;;;;943335;149;27334;-76
2023/09/02 06:53:37;;;;;;;2.62;2.50;;;21.50;99.90;;;;;;943051;149;28484;-76
2023/09/02 06:56:09;;;;;;;2.35;2.15;;;21.50;99.90;;;;;;943489;149;27404;-75
2023/09/02 06:58:36;;;;;;;2.20;2.05;;;21.50;99.90;;;;;;943498;149;27458;-76
2023/09/02 07:01:02;;;;;;;2.20;2.10;;;21.60;99.90;;;;;;940975;149;27460;-75
2023/09/02 07:03:29;;;;;;;1.92;1.82;;;21.60;99.90;;;;;;943672;149;27360;-76
2023/09/02 07:05:56;;;;;;;1.95;1.85;;;21.70;99.90;;;;;;943692;149;28578;-76
2023/09/02 07:08:22;;;;;;;2.55;2.35;;;21.80;99.90;;;;;;941857;149;27457;-76
2023/09/02 07:10:49;;;;;;;2.08;1.98;;;21.80;99.90;;;;;;944068;149;27350;-75
2023/09/02 07:13:15;;;;;;;3.92;2.10;;;21.90;99.90;;;;;;943302;149;27468;-76
2023/09/02 07:15:42;;;;;;;1.62;1.52;;;21.90;99.90;;;;;;944605;149;27458;-75
2023/09/02 07:18:09;;;;;;;1.98;1.87;;;21.90;99.90;;;;;;944556;149;27420;-75
2023/09/02 07:20:36;;;;;;;2.12;1.62;;;22.00;99.90;;;;;;942874;148;27274;-76
2023/09/02 07:23:02;;;;;;;2.67;1.75;;;22.00;99.90;;;;;;944229;148;27369;-76
2023/09/02 07:25:28;;;;;;;1.45;1.35;;;22.10;99.90;;;;;;943518;149;27363;-76
2023/09/02 07:27:55;;;;;;;2.00;1.80;;;22.10;99.90;;;;;;945880;148;27390;-76
2023/09/02 07:30:21;;;;;;;3.87;1.47;;;22.20;99.90;;;;;;943981;148;27479;-76
2023/09/02 07:32:48;;;;;;;1.70;1.60;;;22.30;99.90;;;;;;943310;148;27361;-76
2023/09/02 07:35:15;;;;;;;1.77;1.67;;;22.40;99.90;;;;;;943364;148;27468;-76
2023/09/02 07:37:41;;;;;;;3.08;2.17;;;22.50;99.90;;;;;;943547;148;28409;-76
2023/09/02 07:40:08;;;;;;;1.50;1.40;;;22.60;99.90;;;;;;924630;152;27500;-77
2023/09/02 07:42:34;;;;;;;1.70;1.60;;;22.70;99.90;;;;;;928666;151;27347;-77
2023/09/02 07:45:01;;;;;;;1.67;1.57;;;22.80;99.90;;;;;;945547;148;27447;-75
2023/09/02 07:47:28;;;;;;;1.50;1.40;;;23.00;99.90;;;;;;943692;148;27482;-76
2023/09/02 07:49:55;;;;;;;2.08;1.52;;;23.20;99.90;;;;;;926935;151;27378;-76
2023/09/02 07:52:21;;;;;;;1.70;1.60;;;23.30;99.90;;;;;;926552;151;27349;-74
2023/09/02 07:54:47;;;;;;;1.60;1.50;;;23.50;99.90;;;;;;928960;151;27481;-75
2023/09/02 07:57:14;;;;;;;1.60;1.50;;;23.60;99.90;;;;;;943869;148;27467;-76
2023/09/02 07:59:41;;;;;;;1.42;1.32;;;23.80;99.90;;;;;;938613;148;27831;-75
2023/09/02 08:02:07;;;;;;;1.50;1.40;;;23.90;99.90;;;;;;930747;150;27771;-74
2023/09/02 08:04:34;;;;;;;1.45;1.40;;;24.10;99.90;;;;;;931843;150;27328;-76
2023/09/02 08:07:00;;;;;;;1.82;1.10;;;24.30;99.90;;;;;;930116;150;27360;-75
2023/09/02 08:09:27;;;;;;;1.95;1.02;;;24.50;99.90;;;;;;930331;150;27913;-75
2023/09/02 08:11:54;;;;;;;1.12;1.12;;;24.70;99.90;;;;;;932707;150;27338;-73
2023/09/02 08:14:20;;;;;;;1.50;1.40;;;25.10;99.90;;;;;;930703;150;27371;-76
2023/09/02 08:16:47;;;;;;;1.05;1.00;;;25.60;99.90;;;;;;932098;150;27427;-76
2023/09/02 08:19:13;;;;;;;0.88;0.88;;;26.10;99.90;;;;;;929735;150;27457;-74
2023/09/02 08:21:40;;;;;;;0.75;0.75;;;26.70;99.90;;;;;;930898;150;27918;-75
2023/09/02 08:24:06;;;;;;;0.62;0.62;;;27.30;98.20;;;;;;930506;150;27340;-75
2023/09/02 08:26:33;;;;;;;0.78;0.78;;;27.80;95.90;;;;;;930917;150;26274;-74
2023/09/02 08:29:00;;;;;;;0.60;0.60;;;28.20;92.90;;;;;;933300;150;27346;-74
2023/09/02 08:31:26;;;;;;;0.53;0.53;;;28.60;90.40;;;;;;930199;150;27821;-75
2023/09/02 08:33:53;;;;;;;0.95;0.78;;;29.00;89.00;;;;;;931421;150;27461;-74
2023/09/02 08:36:19;;;;;;;0.60;0.60;;;29.50;88.00;;;;;;931987;150;27284;-74
2023/09/02 08:38:46;;;;;;;0.53;0.53;;;29.90;87.30;;;;;;930742;150;27312;-76
2023/09/02 08:41:13;;;;;;;0.50;0.50;;;30.40;86.40;;;;;;929686;150;27469;-76
2023/09/02 08:43:39;;;;;;;1.12;0.55;;;31.00;85.60;;;;;;930953;150;27445;-76
2023/09/02 08:46:06;;;;;;;0.42;0.42;;;31.70;83.50;;;;;;931444;150;27354;-74
2023/09/02 08:48:33;;;;;;;0.45;0.45;;;32.20;78.40;;;;;;924249;151;27427;-74
2023/09/02 08:50:59;;;;;;;1.20;0.85;;;32.70;74.70;;;;;;923825;151;27434;-75
2023/09/02 08:53:26;;;;;;;0.60;0.60;;;32.90;71.60;;;;;;922513;151;27462;-74
2023/09/02 08:55:52;;;;;;;1.00;0.80;;;33.10;68.80;;;;;;909772;153;27477;-75
2023/09/02 08:58:19;;;;;;;0.40;0.40;;;33.10;67.00;;;;;;930076;150;27446;-74
2023/09/02 09:00:45;;;;;;;2.60;0.40;;;33.00;66.30;;;;;;936585;149;27385;-76
2023/09/02 09:03:12;;;;;;;0.88;0.70;;;32.80;65.70;;;;;;944122;148;27462;-77
2023/09/02 09:05:41;;;;;;;0.82;0.60;;;32.70;65.40;;;;;;943799;149;26288;-76
2023/09/02 09:08:08;;;;;;;0.47;0.47;;;32.50;65.40;;;;;;942123;149;27349;-77
2023/09/02 09:10:35;;;;;;;0.40;0.40;;;32.50;65.60;;;;;;940380;151;27456;-77
2023/09/02 09:13:01;;;;;;;0.70;0.70;;;32.60;66.00;;;;;;942286;149;26280;-78
2023/09/02 09:15:28;;;;;;;0.30;0.30;;;32.70;65.50;;;;;;941173;151;27350;-77
2023/09/02 09:17:54;;;;;;;0.60;0.42;;;32.90;64.90;;;;;;942533;149;26264;-78
2023/09/02 09:20:21;;;;;;;1.42;0.60;;;33.10;64.50;;;;;;934572;150;26252;-77
2023/09/02 09:22:51;;;;;;;0.60;0.60;;;33.20;64.50;;;;;;942906;149;26406;-76
2023/09/02 09:25:14;;;;;;;0.50;0.30;;;33.30;63.90;;;;;;945457;149;27450;-79
2023/09/02 09:27:40;;;;;;;0.70;0.50;;;33.60;64.20;;;;;;944194;148;26670;-77
2023/09/02 09:30:07;;;;;;;1.37;0.53;;;33.90;64.00;;;;;;943149;148;26260;-78
2023/09/02 09:32:34;;;;;;;0.70;0.53;;;34.20;62.80;;;;;;939595;149;26330;-78
2023/09/02 09:35:00;;;;;;;0.45;0.45;;;34.40;61.60;;;;;;943386;149;26300;-76
2023/09/02 09:37:27;;;;;;;1.10;0.50;;;34.50;60.10;;;;;;928375;151;26673;-79
2023/09/02 09:39:54;;;;;;;0.55;0.55;;;34.50;59.20;;;;;;944241;149;26232;-78
2023/09/02 09:42:20;;;;;;;0.42;0.42;;;34.40;58.50;;;;;;926996;152;27427;-78
2023/09/02 09:44:55;;;;;;;0.75;0.70;;;34.30;58.50;;;;;;943625;148;27817;-77
2023/09/02 09:47:22;;;;;;;0.50;0.50;;;34.10;58.40;;;;;;927663;151;27470;-78
2023/09/02 09:49:52;;;;;;;0.72;0.72;;;33.90;58.00;;;;;;943513;148;27443;-78
2023/09/02 09:52:18;;;;;;;1.25;0.72;;;33.70;57.30;;;;;;943171;148;27459;-77
2023/09/02 09:54:56;;;;;;;0.50;0.50;;;33.40;57.30;;;;;;941481;149;27443;-78
2023/09/02 09:57:38;;;;;;;0.50;0.50;;;33.20;57.80;;;;;;943304;148;27308;-79
2023/09/02 10:00:05;;;;;;;1.25;0.70;;;32.90;57.90;;;;;;944005;148;27329;-78
2023/09/02 10:02:32;;;;;;;0.60;0.60;;;32.60;58.20;;;;;;931098;148;27406;-77
2023/09/02 10:04:59;;;;;;;0.60;0.60;;;32.40;58.50;;;;;;931084;150;27421;-77
2023/09/02 10:07:31;;;;;;;0.78;0.72;;;32.30;58.80;;;;;;930257;150;27444;-78
2023/09/02 10:10:00;;;;;;;0.70;0.70;;;32.20;59.30;;;;;;931843;150;27467;-78
2023/09/02 10:12:33;;;;;;;0.72;0.55;;;32.20;59.80;;;;;;931801;150;27390;-75
2023/09/02 10:14:53;;;;;;;0.62;0.62;;;32.30;59.80;;;;;;931496;150;27402;-77
2023/09/02 10:17:20;;;;;;;0.53;0.53;;;32.40;59.50;;;;;;931227;150;27360;-75
2023/09/02 10:19:47;;;;;;;0.50;0.50;;;32.50;59.20;;;;;;932739;150;27336;-76
2023/09/02 10:22:19;;;;;;;1.17;0.62;;;32.60;58.90;;;;;;931631;150;27355;-75
2023/09/02 10:24:42;;;;;;;0.50;0.50;;;32.60;58.70;;;;;;931726;150;27395;-76
2023/09/02 10:27:12;;;;;;;0.57;0.57;;;32.70;58.70;;;;;;931923;150;27359;-76
2023/09/02 10:29:38;;;;;;;0.75;0.75;;;32.70;58.50;;;;;;930602;150;27437;-75
2023/09/02 10:32:08;;;;;;;0.62;0.62;;;32.80;58.40;;;;;;931497;150;27307;-76
2023/09/02 10:34:37;;;;;;;0.70;0.70;;;32.90;58.40;;;;;;928011;151;27478;-76
2023/09/02 10:37:03;;;;;;;1.07;0.75;;;32.90;58.00;;;;;;932186;150;27338;-75
2023/09/02 10:39:33;;;;;;;0.75;0.50;;;32.90;57.40;;;;;;908079;153;27400;-76
2023/09/02 10:41:59;;;;;;;0.72;0.72;;;33.00;57.20;;;;;;914408;152;27414;-76
2023/09/02 10:44:26;;;;;;;0.50;0.50;;;32.90;56.90;;;;;;914531;152;27377;-75
2023/09/02 10:46:53;;;;;;;1.22;0.70;;;32.80;56.70;;;;;;930960;149;27366;-75
2023/09/02 10:49:19;;;;;;;0.90;0.60;;;32.70;56.60;;;;;;930198;149;27310;-76
2023/09/02 10:51:46;;;;;;;0.53;0.53;;;32.70;56.70;;;;;;907947;153;27322;-76
2023/09/02 10:54:12;;;;;;;1.00;0.60;;;32.60;56.90;;;;;;908440;153;27466;-75
2023/09/02 10:56:39;;;;;;;0.65;0.65;;;32.50;56.80;;;;;;908057;153;27391;-75
2023/09/02 10:59:06;;;;;;;0.78;0.78;;;32.50;56.40;;;;;;923817;152;27446;-75
2023/09/02 11:01:41;;;;;;;0.75;0.62;;;32.30;56.20;;;;;;923312;152;27713;-75
2023/09/02 11:04:08;;;;;;;0.88;0.65;;;32.10;56.00;;;;;;922073;154;27496;-75
2023/09/02 11:06:34;;;;;;;0.55;0.55;;;31.80;55.90;;;;;;924529;152;27372;-75
2023/09/02 11:09:01;;;;;;;0.95;0.57;;;31.50;56.00;;;;;;922276;152;27421;-75
2023/09/02 11:11:27;;;;;;;1.02;0.72;;;31.20;56.40;;;;;;922594;152;27364;-76
2023/09/02 11:14:09;;;;;;;1.52;0.70;;;30.80;56.50;;;;;;904251;152;27350;-75
2023/09/02 11:16:38;;;;;;;0.85;0.80;;;30.50;56.90;;;;;;923881;152;26403;-75
2023/09/02 11:19:08;;;;;;;0.65;0.65;;;30.30;57.40;;;;;;923719;152;27413;-75
2023/09/02 11:21:48;;;;;;;0.47;0.47;;;30.10;57.90;;;;;;922823;152;27677;-75
2023/09/02 11:24:20;;;;;;;0.55;0.55;;;30.00;57.90;;;;;;917409;152;27398;-75
2023/09/02 11:26:55;;;;;;;0.60;0.60;;;29.80;58.00;;;;;;929841;149;27311;-75
2023/09/02 11:29:25;;;;;;;0.45;0.45;;;29.60;57.90;;;;;;923888;152;27395;-75
2023/09/02 11:31:57;;;;;;;0.88;0.60;;;29.40;58.30;;;;;;922770;152;27411;-75
2023/09/02 11:34:24;;;;;;;0.40;0.40;;;29.30;58.40;;;;;;922528;152;27310;-75
2023/09/02 11:36:53;;;;;;;0.65;0.65;;;29.20;58.80;;;;;;922041;152;27494;-75
2023/09/02 11:39:20;;;;;;;0.95;0.50;;;29.10;58.90;;;;;;923640;152;27486;-75
2023/09/02 11:41:46;;;;;;;0.70;0.70;;;29.00;59.00;;;;;;921717;152;27341;-75
2023/09/02 11:44:13;;;;;;;1.32;1.22;;;28.90;59.20;;;;;;921925;152;27514;-75
2023/09/02 11:46:39;;;;;;;1.62;1.30;;;28.90;59.40;;;;;;922461;152;27434;-75
2023/09/02 11:49:12;;;;;;;1.32;0.68;;;28.90;59.60;;;;;;922431;152;27450;-76
2023/09/02 11:51:38;;;;;;;0.70;0.70;;;28.80;59.30;;;;;;925294;152;27461;-75
2023/09/02 11:54:05;;;;;;;0.82;0.60;;;28.80;59.40;;;;;;925176;152;27384;-76
2023/09/02 11:56:31;;;;;;;0.40;0.40;;;28.80;59.40;;;;;;922724;152;27464;-76
2023/09/02 11:58:58;;;;;;;0.60;0.60;;;28.80;59.20;;;;;;921935;152;27421;-76
2023/09/02 12:01:25;;;;;;;0.85;0.75;;;28.70;59.00;;;;;;921853;152;27422;-75
2023/09/02 12:03:51;;;;;;;0.80;0.80;;;28.70;58.90;;;;;;922385;152;27413;-76
2023/09/02 12:06:18;;;;;;;0.53;0.50;;;28.70;59.00;;;;;;923078;152;27924;-76
2023/09/02 12:08:44;;;;;;;1.17;0.50;;;28.60;58.60;;;;;;923461;152;27832;-76
2023/09/02 12:11:11;;;;;;;0.37;0.37;;;28.60;58.60;;;;;;922375;152;27384;-76
2023/09/02 12:13:38;;;;;;;0.50;0.50;;;28.50;58.70;;;;;;922287;152;27385;-76
2023/09/02 12:16:04;;;;;;;0.57;0.53;;;28.50;58.60;;;;;;922961;152;27288;-76
2023/09/02 12:18:31;;;;;;;1.67;0.55;;;28.40;58.30;;;;;;922094;152;28097;-75
2023/09/02 12:20:57;;;;;;;0.42;0.42;;;28.40;58.40;;;;;;922739;152;27383;-75
2023/09/02 12:23:24;;;;;;;0.50;0.33;;;28.40;58.70;;;;;;922903;152;27286;-76
2023/09/02 12:26:06;;;;;;;0.42;0.42;;;28.40;58.50;;;;;;923988;152;27464;-76
2023/09/02 12:28:32;;;;;;;0.70;0.47;;;28.40;57.90;;;;;;922856;152;28072;-76
2023/09/02 12:30:59;;;;;;;0.93;0.42;;;28.40;57.80;;;;;;915464;152;27384;-76
2023/09/02 12:33:26;;;;;;;0.42;0.42;;;28.50;57.60;;;;;;915835;152;27404;-75
2023/09/02 12:35:52;;;;;;;0.47;0.47;;;28.50;57.80;;;;;;916507;152;27492;-75
2023/09/02 12:38:21;;;;;;;0.30;0.30;;;28.60;57.80;;;;;;916099;152;28144;-76
2023/09/02 12:40:57;;;;;;;0.50;0.50;;;28.60;57.70;;;;;;931864;150;27425;-77
2023/09/02 12:43:30;;;;;;;0.53;0.53;;;28.60;57.80;;;;;;907007;153;28296;-76
2023/09/02 12:45:56;;;;;;;0.40;0.40;;;28.70;57.80;;;;;;917184;152;27310;-75